Time;durP1;ratioP1;P1;durP2;ratioP2;P2;SDS_P1;SDS_P2;PMS_P1;PMS_P2;Temp;Humidity;BMP_temperature;BMP_pressure;BME280_temperature;BME280_humidity;BME280_pressure;Samples;Min_cycle;Max_cycle;Signal;HPM_P1;HPM_P2
2021/09/05 00:01:26;;;;;;;26.92;17.95;;;13.40;99.90;;;;;;4954405;28;20046;-68
2021/09/05 00:03:52;;;;;;;27.02;16.42;;;13.40;99.90;;;;;;4951579;28;20172;-67
2021/09/05 00:06:17;;;;;;;24.63;16.60;;;13.30;99.90;;;;;;4952013;28;20510;-68
2021/09/05 00:08:43;;;;;;;28.23;17.25;;;13.30;99.90;;;;;;4955008;28;20423;-68
2021/09/05 00:11:11;;;;;;;26.00;17.10;;;13.30;99.90;;;;;;4954127;28;20035;-68
2021/09/05 00:13:36;;;;;;;27.42;17.73;;;13.20;99.90;;;;;;4952670;29;20031;-68
2021/09/05 00:16:02;;;;;;;24.92;17.05;;;13.20;99.90;;;;;;4955281;29;20027;-67
2021/09/05 00:18:27;;;;;;;30.15;17.92;;;13.10;99.90;;;;;;4955185;29;20035;-68
2021/09/05 00:20:53;;;;;;;32.42;18.33;;;13.10;99.90;;;;;;4955783;28;20438;-68
2021/09/05 00:23:18;;;;;;;29.70;16.45;;;13.10;99.90;;;;;;4955156;28;20039;-68
2021/09/05 00:25:44;;;;;;;26.25;15.38;;;13.10;99.90;;;;;;4953712;29;20039;-67
2021/09/05 00:28:09;;;;;;;27.30;16.30;;;13.00;99.90;;;;;;4954086;28;20031;-68
2021/09/05 00:30:35;;;;;;;25.38;17.48;;;13.10;99.90;;;;;;4952636;28;20067;-67
2021/09/05 00:33:06;;;;;;;30.15;17.55;;;13.00;99.90;;;;;;4948320;29;20086;-68
2021/09/05 00:35:32;;;;;;;25.73;16.65;;;13.10;99.90;;;;;;4953899;28;20030;-68
2021/09/05 00:37:57;;;;;;;29.25;17.80;;;13.10;99.90;;;;;;4953719;28;20394;-68
2021/09/05 00:40:23;;;;;;;26.88;18.08;;;13.10;99.90;;;;;;4954480;28;20035;-68
2021/09/05 00:42:48;;;;;;;29.95;17.83;;;13.10;99.90;;;;;;4954831;28;20031;-67
2021/09/05 00:45:14;;;;;;;26.65;17.17;;;13.10;99.90;;;;;;4953417;29;20074;-68
2021/09/05 00:47:39;;;;;;;26.33;16.67;;;13.10;99.90;;;;;;4953202;29;20410;-68
2021/09/05 00:50:05;;;;;;;27.40;17.23;;;13.10;99.90;;;;;;4951339;28;20034;-67
2021/09/05 00:52:31;;;;;;;26.23;17.40;;;13.10;99.90;;;;;;4950798;29;20043;-68
2021/09/05 00:54:57;;;;;;;26.73;17.17;;;13.10;99.90;;;;;;4952860;28;20492;-68
2021/09/05 00:57:23;;;;;;;26.95;17.63;;;13.10;99.90;;;;;;4954266;28;20031;-68
2021/09/05 00:59:49;;;;;;;28.98;16.38;;;13.10;99.90;;;;;;4955267;29;20027;-68
2021/09/05 01:02:15;;;;;;;29.05;17.88;;;13.00;99.90;;;;;;4951423;28;20461;-68
2021/09/05 01:04:42;;;;;;;29.60;17.65;;;13.00;99.90;;;;;;4949968;28;20110;-68
2021/09/05 01:07:08;;;;;;;29.38;18.50;;;13.00;99.90;;;;;;4950067;28;20054;-68
2021/09/05 01:09:34;;;;;;;27.80;16.40;;;13.00;99.90;;;;;;4953925;28;20035;-68
2021/09/05 01:12:00;;;;;;;26.45;16.42;;;13.00;99.90;;;;;;4952759;28;20493;-68
2021/09/05 01:14:26;;;;;;;27.25;15.65;;;13.00;99.90;;;;;;4952418;28;20385;-68
2021/09/05 01:16:53;;;;;;;26.60;16.05;;;12.90;99.90;;;;;;4953054;28;20031;-68
2021/09/05 01:19:20;;;;;;;30.83;17.20;;;13.00;99.90;;;;;;4950016;29;20030;-68
2021/09/05 01:21:48;;;;;;;27.88;18.15;;;12.90;99.90;;;;;;4954399;28;20032;-68
2021/09/05 01:24:14;;;;;;;24.95;17.55;;;12.90;99.90;;;;;;4950485;29;20085;-68
2021/09/05 01:26:43;;;;;;;28.35;17.17;;;12.90;99.90;;;;;;4953670;28;20402;-68
2021/09/05 01:29:09;;;;;;;30.80;18.02;;;12.90;99.90;;;;;;4953900;28;20035;-68
2021/09/05 01:31:43;;;;;;;25.05;16.08;;;12.90;99.90;;;;;;4950431;28;20019;-68
2021/09/05 01:34:11;;;;;;;28.65;16.75;;;13.00;99.90;;;;;;4950460;28;20039;-68
2021/09/05 01:36:38;;;;;;;30.27;18.02;;;12.90;99.90;;;;;;4950172;28;20034;-68
2021/09/05 01:39:06;;;;;;;29.85;17.25;;;12.90;99.90;;;;;;4951651;28;20027;-68
2021/09/05 01:41:31;;;;;;;35.70;18.30;;;12.80;99.90;;;;;;4952938;29;20035;-68
2021/09/05 01:43:59;;;;;;;27.20;17.27;;;12.80;99.90;;;;;;4953616;29;20023;-67
2021/09/05 01:46:24;;;;;;;26.52;16.25;;;12.70;99.90;;;;;;4953050;28;20031;-68
2021/09/05 01:48:50;;;;;;;30.70;17.92;;;12.70;99.90;;;;;;4951828;28;20050;-68
2021/09/05 01:51:15;;;;;;;35.50;16.83;;;12.70;99.90;;;;;;4950239;28;20024;-68
2021/09/05 01:53:41;;;;;;;30.20;17.27;;;12.70;99.90;;;;;;4952369;28;20486;-68
2021/09/05 01:56:06;;;;;;;29.33;17.48;;;12.60;99.90;;;;;;4949738;28;20106;-69
2021/09/05 01:58:32;;;;;;;28.05;16.33;;;12.50;99.90;;;;;;4953384;28;20031;-68
2021/09/05 02:00:57;;;;;;;29.65;17.05;;;12.60;99.90;;;;;;4953326;29;20055;-68
2021/09/05 02:03:23;;;;;;;29.85;17.17;;;12.60;99.90;;;;;;4951077;29;20035;-68
2021/09/05 02:05:48;;;;;;;29.90;17.08;;;12.50;99.90;;;;;;4952073;28;20043;-68
2021/09/05 02:08:14;;;;;;;32.55;17.20;;;12.50;99.90;;;;;;4951514;28;20049;-68
2021/09/05 02:10:39;;;;;;;32.55;17.95;;;12.50;99.90;;;;;;4952363;28;20043;-68
2021/09/05 02:13:05;;;;;;;29.58;18.40;;;12.50;99.90;;;;;;4953344;29;20032;-68
2021/09/05 02:15:30;;;;;;;25.80;15.68;;;12.50;99.90;;;;;;4952891;29;20031;-67
2021/09/05 02:17:56;;;;;;;27.50;16.08;;;12.50;99.90;;;;;;4952547;28;20093;-68
2021/09/05 02:20:21;;;;;;;30.52;16.80;;;12.50;99.90;;;;;;4951313;28;20083;-68
2021/09/05 02:22:47;;;;;;;31.88;17.45;;;12.50;99.90;;;;;;4952767;28;20031;-68
2021/09/05 02:25:12;;;;;;;35.10;17.45;;;12.50;99.90;;;;;;4951870;29;20110;-68
2021/09/05 02:27:38;;;;;;;28.92;16.70;;;12.50;99.90;;;;;;4951895;28;20103;-68
2021/09/05 02:30:05;;;;;;;38.17;16.90;;;12.50;99.90;;;;;;4953211;28;20504;-69
2021/09/05 02:32:31;;;;;;;29.42;16.50;;;12.40;99.90;;;;;;4951631;28;20036;-68
2021/09/05 02:34:56;;;;;;;31.95;17.05;;;12.40;99.90;;;;;;4948692;28;20073;-68
2021/09/05 02:37:22;;;;;;;26.77;15.70;;;12.40;99.90;;;;;;4951600;28;20053;-68
2021/09/05 02:39:47;;;;;;;27.63;14.90;;;12.30;99.90;;;;;;4952637;29;20035;-68
2021/09/05 02:42:13;;;;;;;28.77;14.90;;;12.30;99.90;;;;;;4952495;28;20050;-68
2021/09/05 02:44:38;;;;;;;29.83;16.58;;;12.30;99.90;;;;;;4952118;28;20445;-68
2021/09/05 02:47:04;;;;;;;28.92;16.58;;;12.30;99.90;;;;;;4951048;28;20094;-69
2021/09/05 02:49:29;;;;;;;28.63;15.50;;;12.20;99.90;;;;;;4953499;29;20031;-68
2021/09/05 02:51:55;;;;;;;28.67;16.42;;;12.20;99.90;;;;;;4953149;29;20115;-68
2021/09/05 02:54:21;;;;;;;32.63;17.33;;;12.10;99.90;;;;;;4950939;28;20638;-68
2021/09/05 02:56:46;;;;;;;25.40;14.65;;;12.10;99.90;;;;;;4950974;28;20528;-68
2021/09/05 02:59:12;;;;;;;36.08;18.23;;;12.10;99.90;;;;;;4951597;28;20035;-68
2021/09/05 03:01:37;;;;;;;27.67;14.82;;;12.10;99.90;;;;;;4953402;28;20085;-69
2021/09/05 03:04:03;;;;;;;31.58;17.08;;;12.10;99.90;;;;;;4949969;29;20416;-68
2021/09/05 03:06:28;;;;;;;31.58;17.23;;;12.10;99.90;;;;;;4950387;28;20086;-69
2021/09/05 03:08:54;;;;;;;28.50;15.55;;;12.10;99.90;;;;;;4953335;28;20531;-68
2021/09/05 03:11:19;;;;;;;28.35;15.20;;;12.00;99.90;;;;;;4956397;28;20119;-69
2021/09/05 03:13:47;;;;;;;31.25;17.75;;;12.00;99.90;;;;;;4956993;29;20513;-68
2021/09/05 03:16:13;;;;;;;31.13;17.42;;;12.00;99.90;;;;;;4954977;29;20023;-68
2021/09/05 03:18:39;;;;;;;32.72;18.15;;;11.90;99.90;;;;;;4954756;29;20028;-68
2021/09/05 03:21:05;;;;;;;30.38;16.60;;;11.90;99.90;;;;;;4956529;29;20027;-68
2021/09/05 03:23:30;;;;;;;30.45;16.80;;;11.90;99.90;;;;;;4954515;28;20032;-68
2021/09/05 03:25:56;;;;;;;31.88;15.88;;;11.80;99.90;;;;;;4953953;28;20393;-68
2021/09/05 03:28:22;;;;;;;33.85;17.45;;;11.80;99.90;;;;;;4953573;28;20035;-68
2021/09/05 03:30:47;;;;;;;29.20;16.08;;;11.80;99.90;;;;;;4951418;28;20035;-68
2021/09/05 03:33:13;;;;;;;30.70;16.17;;;11.70;99.90;;;;;;4944771;28;20028;-68
2021/09/05 03:35:38;;;;;;;34.22;16.90;;;11.70;99.90;;;;;;4952733;28;20027;-68
2021/09/05 03:38:04;;;;;;;31.60;17.27;;;11.70;99.90;;;;;;4954663;28;20053;-68
2021/09/05 03:40:29;;;;;;;28.70;16.67;;;11.60;99.90;;;;;;4955284;28;20042;-68
2021/09/05 03:42:55;;;;;;;36.60;16.95;;;11.60;99.90;;;;;;4955621;28;20110;-68
2021/09/05 03:45:21;;;;;;;29.05;17.05;;;11.60;99.90;;;;;;4954263;29;20054;-68
2021/09/05 03:47:46;;;;;;;34.22;16.70;;;11.60;99.90;;;;;;4953937;28;20039;-68
2021/09/05 03:50:12;;;;;;;28.20;14.73;;;11.60;99.90;;;;;;4954270;28;20059;-68
2021/09/05 03:52:37;;;;;;;31.80;16.65;;;11.50;99.90;;;;;;4952232;28;20511;-68
2021/09/05 03:55:05;;;;;;;25.95;13.80;;;11.50;99.90;;;;;;4940715;28;20019;-68
2021/09/05 03:57:30;;;;;;;28.20;15.40;;;11.50;99.90;;;;;;4954946;28;20046;-68
2021/09/05 03:59:56;;;;;;;35.97;16.75;;;11.50;99.90;;;;;;4955157;28;20043;-68
2021/09/05 04:02:21;;;;;;;30.92;16.25;;;11.60;99.90;;;;;;4954668;28;20260;-68
2021/09/05 04:04:47;;;;;;;37.50;17.25;;;11.50;99.90;;;;;;4954355;29;20192;-68
2021/09/05 04:07:17;;;;;;;34.15;16.88;;;11.50;99.90;;;;;;4953071;28;20059;-68
2021/09/05 04:12:27;;;;;;;33.45;15.68;;;11.40;99.90;;;;;;4950717;29;20086;-68
2021/09/05 04:14:52;;;;;;;29.63;15.23;;;11.40;99.90;;;;;;4954825;28;20394;-68
2021/09/05 04:17:18;;;;;;;43.58;17.27;;;11.40;99.90;;;;;;4953381;28;20023;-68
2021/09/05 04:19:43;;;;;;;30.52;15.88;;;11.40;99.90;;;;;;4954027;28;20035;-68
2021/09/05 04:22:09;;;;;;;36.78;17.65;;;11.40;99.90;;;;;;4954674;28;20385;-68
2021/09/05 04:24:34;;;;;;;31.38;15.68;;;11.40;99.90;;;;;;4953265;28;20090;-68
2021/09/05 04:27:00;;;;;;;34.05;17.50;;;11.40;99.90;;;;;;4952590;28;20054;-68
2021/09/05 04:29:25;;;;;;;31.95;16.95;;;11.40;99.90;;;;;;4953218;28;20031;-68
2021/09/05 04:31:51;;;;;;;44.28;16.45;;;11.40;99.90;;;;;;4953953;28;20035;-68
2021/09/05 04:34:16;;;;;;;35.17;17.77;;;11.30;99.90;;;;;;4952965;29;20119;-68
2021/09/05 04:36:42;;;;;;;31.85;16.98;;;11.40;99.90;;;;;;4952764;28;20083;-68
2021/09/05 04:39:07;;;;;;;29.83;15.48;;;11.40;99.90;;;;;;4955046;28;20086;-69
2021/09/05 04:41:34;;;;;;;30.02;15.68;;;11.40;99.90;;;;;;4953436;28;20078;-68
2021/09/05 04:43:59;;;;;;;37.45;17.63;;;11.40;99.90;;;;;;4953285;28;20131;-68
2021/09/05 04:46:25;;;;;;;37.47;16.48;;;11.30;99.90;;;;;;4955046;28;20031;-69
2021/09/05 04:48:50;;;;;;;32.08;15.00;;;11.40;99.90;;;;;;4953113;28;20038;-68
2021/09/05 04:51:16;;;;;;;33.65;16.35;;;11.40;99.90;;;;;;4953958;28;20421;-68
2021/09/05 04:53:42;;;;;;;32.60;16.23;;;11.40;99.90;;;;;;4953152;28;20035;-68
2021/09/05 04:56:07;;;;;;;34.05;17.20;;;11.40;99.90;;;;;;4950577;28;20074;-68
2021/09/05 04:58:33;;;;;;;37.28;17.02;;;11.40;99.90;;;;;;4954334;28;20031;-68
2021/09/05 05:00:58;;;;;;;34.33;17.05;;;11.50;99.90;;;;;;4954416;28;20062;-68
2021/09/05 05:03:24;;;;;;;35.63;16.85;;;11.50;99.90;;;;;;4950657;28;20039;-68
2021/09/05 05:05:49;;;;;;;35.03;16.80;;;11.50;99.90;;;;;;4949547;29;20446;-68
2021/09/05 05:08:15;;;;;;;30.45;17.38;;;11.50;99.90;;;;;;4952302;29;20477;-68
2021/09/05 05:10:40;;;;;;;31.75;16.75;;;11.40;99.90;;;;;;4953531;28;20039;-68
2021/09/05 05:13:06;;;;;;;32.47;17.83;;;11.40;99.90;;;;;;4953265;29;20417;-68
2021/09/05 05:15:31;;;;;;;32.45;16.65;;;11.40;99.90;;;;;;4952123;28;21488;-68
2021/09/05 05:17:57;;;;;;;30.52;15.98;;;11.50;99.90;;;;;;4949846;28;20115;-68
2021/09/05 05:20:22;;;;;;;34.67;17.50;;;11.40;99.90;;;;;;4953764;28;20058;-68
2021/09/05 05:22:48;;;;;;;34.50;17.02;;;11.50;99.90;;;;;;4952433;28;20107;-69
2021/09/05 05:25:14;;;;;;;31.42;16.08;;;11.50;99.90;;;;;;4953139;28;20441;-69
2021/09/05 05:27:40;;;;;;;28.52;15.48;;;11.40;99.90;;;;;;4956757;28;20034;-68
2021/09/05 05:30:05;;;;;;;37.40;16.95;;;11.40;99.90;;;;;;4952378;28;20038;-70
2021/09/05 05:32:31;;;;;;;34.47;16.70;;;11.40;99.90;;;;;;4951898;28;20131;-69
2021/09/05 05:34:57;;;;;;;30.50;16.85;;;11.50;99.90;;;;;;4950211;28;20054;-69
2021/09/05 05:37:22;;;;;;;28.60;14.70;;;11.40;99.90;;;;;;4950361;28;20035;-69
2021/09/05 05:39:48;;;;;;;35.70;17.58;;;11.50;99.90;;;;;;4950425;28;20430;-69
2021/09/05 05:42:13;;;;;;;29.15;15.73;;;11.50;99.90;;;;;;4950511;28;20043;-69
2021/09/05 05:44:40;;;;;;;32.60;17.23;;;11.50;99.90;;;;;;4954574;28;20023;-69
2021/09/05 05:47:06;;;;;;;33.33;16.45;;;11.60;99.90;;;;;;4953167;29;20062;-69
2021/09/05 05:49:32;;;;;;;30.75;16.90;;;11.60;99.90;;;;;;4954038;29;20066;-69
2021/09/05 05:51:58;;;;;;;37.08;16.98;;;11.60;99.90;;;;;;4951735;28;20039;-69
2021/09/05 05:54:23;;;;;;;29.40;16.05;;;11.60;99.90;;;;;;4953236;29;20023;-69
2021/09/05 05:56:49;;;;;;;35.33;17.00;;;11.70;99.90;;;;;;4954052;29;20023;-69
2021/09/05 05:59:15;;;;;;;33.17;17.20;;;11.80;99.90;;;;;;4953590;29;20023;-69
2021/09/05 06:01:41;;;;;;;29.67;17.05;;;11.80;99.90;;;;;;4952959;28;20059;-69
2021/09/05 06:04:08;;;;;;;32.45;16.85;;;11.90;99.90;;;;;;4950462;28;20035;-69
2021/09/05 06:06:34;;;;;;;31.05;16.02;;;11.90;99.90;;;;;;4953305;28;20039;-69
2021/09/05 06:09:00;;;;;;;32.58;16.20;;;11.90;99.90;;;;;;4953694;28;20240;-69
2021/09/05 06:11:27;;;;;;;31.05;18.15;;;12.00;99.90;;;;;;4951446;28;20150;-69
2021/09/05 06:13:53;;;;;;;26.38;16.25;;;12.10;99.90;;;;;;4949472;29;20066;-69
2021/09/05 06:16:19;;;;;;;32.03;17.13;;;12.10;99.90;;;;;;4942575;28;20034;-68
2021/09/05 06:18:44;;;;;;;34.63;17.75;;;12.20;99.90;;;;;;4952374;28;20441;-68
2021/09/05 06:21:10;;;;;;;24.23;14.27;;;12.20;99.90;;;;;;4966814;28;20035;-68
2021/09/05 06:23:35;;;;;;;29.70;16.40;;;12.30;99.90;;;;;;4955282;28;20050;-68
2021/09/05 06:26:01;;;;;;;27.90;15.23;;;12.30;99.90;;;;;;4955696;28;20046;-68
2021/09/05 06:28:26;;;;;;;30.20;16.00;;;12.40;99.90;;;;;;4953171;28;20090;-68
2021/09/05 06:30:52;;;;;;;29.35;15.93;;;12.50;99.90;;;;;;4953145;28;20082;-69
2021/09/05 06:33:17;;;;;;;32.90;15.93;;;12.60;99.90;;;;;;4953580;28;20062;-68
2021/09/05 06:35:43;;;;;;;29.30;16.77;;;12.60;99.90;;;;;;4952486;28;20027;-67
2021/09/05 06:38:08;;;;;;;28.85;15.48;;;12.70;99.90;;;;;;4952131;28;20038;-68
2021/09/05 06:40:34;;;;;;;35.53;16.40;;;12.80;99.90;;;;;;4953831;28;20027;-68
2021/09/05 06:42:59;;;;;;;31.65;16.30;;;12.90;99.90;;;;;;4952862;28;20520;-68
2021/09/05 06:45:25;;;;;;;29.05;17.35;;;12.90;99.90;;;;;;4954706;28;20031;-68
2021/09/05 06:47:50;;;;;;;27.40;14.95;;;13.00;99.90;;;;;;4947117;28;20035;-68
2021/09/05 06:50:16;;;;;;;33.95;17.15;;;13.10;99.90;;;;;;4966564;28;20035;-68
2021/09/05 06:52:42;;;;;;;35.15;16.75;;;13.20;99.90;;;;;;4949835;28;20050;-68
2021/09/05 06:55:08;;;;;;;26.33;14.55;;;13.30;99.90;;;;;;4952630;28;20101;-69
2021/09/05 06:57:34;;;;;;;24.17;14.60;;;13.40;99.90;;;;;;4952414;28;20050;-68
2021/09/05 06:59:59;;;;;;;26.42;16.48;;;13.50;99.90;;;;;;4962742;28;20509;-68
2021/09/05 07:02:25;;;;;;;24.35;13.40;;;13.60;99.90;;;;;;4959170;28;20035;-68
2021/09/05 07:04:51;;;;;;;24.17;13.18;;;13.60;99.90;;;;;;4972106;28;20030;-69
2021/09/05 07:07:16;;;;;;;24.40;13.27;;;13.80;99.90;;;;;;4968735;28;20027;-69
2021/09/05 07:09:42;;;;;;;24.88;13.50;;;13.90;99.90;;;;;;4955018;28;20094;-68
2021/09/05 07:12:07;;;;;;;22.65;13.13;;;13.90;99.90;;;;;;4956236;28;20548;-69
2021/09/05 07:14:33;;;;;;;21.98;13.15;;;14.00;99.90;;;;;;4962407;28;20050;-69
2021/09/05 07:16:58;;;;;;;24.15;13.82;;;14.00;99.90;;;;;;4956838;28;20374;-70
2021/09/05 07:19:24;;;;;;;20.92;12.73;;;14.10;99.90;;;;;;4952112;28;20046;-68
2021/09/05 07:21:49;;;;;;;23.73;13.15;;;14.20;99.90;;;;;;4966272;28;20038;-69
2021/09/05 07:24:15;;;;;;;24.35;13.43;;;14.30;99.90;;;;;;4962643;28;20035;-69
2021/09/05 07:26:41;;;;;;;27.08;13.60;;;14.30;99.90;;;;;;4955418;28;20393;-68
2021/09/05 07:29:06;;;;;;;27.23;13.93;;;14.40;99.90;;;;;;4955144;28;20425;-68
2021/09/05 07:31:32;;;;;;;21.65;12.95;;;14.50;99.90;;;;;;4954425;28;20140;-69
2021/09/05 07:33:58;;;;;;;20.55;12.57;;;14.50;99.90;;;;;;4964819;28;20027;-67
2021/09/05 07:36:24;;;;;;;21.25;12.00;;;14.60;99.90;;;;;;4963456;28;20496;-69
2021/09/05 07:38:49;;;;;;;27.60;14.02;;;14.60;99.90;;;;;;4955419;29;20110;-69
2021/09/05 07:41:15;;;;;;;21.17;12.30;;;14.80;99.90;;;;;;4955706;28;20039;-68
2021/09/05 07:43:41;;;;;;;22.38;11.95;;;14.90;99.90;;;;;;4971846;28;20109;-69
2021/09/05 07:46:07;;;;;;;23.88;12.95;;;14.90;99.90;;;;;;4957562;28;20039;-68
2021/09/05 07:48:32;;;;;;;23.88;12.35;;;15.00;99.90;;;;;;4948856;28;20434;-68
2021/09/05 07:50:57;;;;;;;20.65;12.75;;;15.10;99.90;;;;;;4953042;28;20028;-68
2021/09/05 07:53:23;;;;;;;20.73;11.20;;;15.20;99.80;;;;;;4952662;28;20070;-68
2021/09/05 07:55:49;;;;;;;20.73;11.52;;;15.30;99.40;;;;;;4955297;29;20107;-68
2021/09/05 07:58:14;;;;;;;19.38;11.45;;;15.40;99.30;;;;;;4953989;28;21747;-69
2021/09/05 08:00:40;;;;;;;20.60;11.35;;;15.50;99.00;;;;;;4954379;29;20119;-68
2021/09/05 08:03:05;;;;;;;19.60;11.35;;;15.60;98.70;;;;;;4949467;28;20516;-69
2021/09/05 08:05:31;;;;;;;16.40;10.60;;;15.70;98.60;;;;;;4954494;28;20113;-68
2021/09/05 08:07:56;;;;;;;17.67;10.15;;;15.80;98.40;;;;;;4952246;28;20114;-68
2021/09/05 08:10:22;;;;;;;24.00;12.90;;;15.90;98.40;;;;;;4949760;29;20059;-68
2021/09/05 08:12:47;;;;;;;21.70;10.75;;;15.90;97.90;;;;;;4953024;28;20058;-69
2021/09/05 08:15:13;;;;;;;19.60;10.13;;;16.00;97.70;;;;;;4955170;28;20024;-68
2021/09/05 08:17:39;;;;;;;17.90;9.68;;;16.10;97.60;;;;;;4955788;28;20386;-68
2021/09/05 08:20:06;;;;;;;19.27;9.98;;;16.20;97.40;;;;;;4950699;29;20027;-68
2021/09/05 08:22:31;;;;;;;18.17;10.75;;;16.20;97.00;;;;;;4953195;28;20031;-68
2021/09/05 08:24:57;;;;;;;16.30;9.50;;;16.30;96.90;;;;;;4948629;28;20107;-68
2021/09/05 08:27:22;;;;;;;19.67;10.50;;;16.40;96.70;;;;;;4961917;28;20039;-68
2021/09/05 08:29:48;;;;;;;18.88;10.60;;;16.50;96.60;;;;;;4947581;28;20038;-67
2021/09/05 08:32:13;;;;;;;15.82;10.10;;;16.50;96.50;;;;;;4952962;28;20035;-68
2021/09/05 08:34:39;;;;;;;19.45;10.88;;;16.70;96.40;;;;;;4957059;28;20030;-68
2021/09/05 08:37:05;;;;;;;16.77;9.32;;;16.70;96.10;;;;;;4972540;28;20050;-68
2021/09/05 08:39:31;;;;;;;16.85;9.88;;;16.80;95.80;;;;;;4965716;28;20386;-68
2021/09/05 08:41:57;;;;;;;16.65;9.25;;;16.90;95.60;;;;;;4954761;29;20035;-67
2021/09/05 08:44:24;;;;;;;16.33;9.38;;;17.00;95.80;;;;;;4954926;29;20046;-68
2021/09/05 08:46:52;;;;;;;19.58;9.35;;;17.10;95.40;;;;;;4954428;29;20572;-68
2021/09/05 08:49:19;;;;;;;18.33;9.23;;;17.20;95.40;;;;;;4951997;28;20482;-68
2021/09/05 08:51:44;;;;;;;14.25;8.65;;;17.30;95.30;;;;;;4953637;29;20039;-68
2021/09/05 08:54:10;;;;;;;15.77;9.40;;;17.40;95.20;;;;;;4950108;29;20405;-68
2021/09/05 08:56:36;;;;;;;16.13;9.32;;;17.50;94.90;;;;;;4954781;29;20034;-68
2021/09/05 08:59:01;;;;;;;13.77;8.20;;;17.70;94.60;;;;;;4950692;28;20027;-67
2021/09/05 09:01:28;;;;;;;15.05;8.13;;;17.70;94.30;;;;;;4947402;28;20055;-67
2021/09/05 09:04:10;;;;;;;19.17;8.98;;;17.80;94.40;;;;;;4952739;28;20027;-67
2021/09/05 09:06:38;;;;;;;19.10;8.70;;;17.90;94.10;;;;;;4953649;28;20035;-67
2021/09/05 09:09:04;;;;;;;16.73;8.65;;;18.00;94.00;;;;;;4950005;29;20031;-68
2021/09/05 09:11:47;;;;;;;14.52;8.57;;;18.10;93.90;;;;;;4954908;29;20028;-67
2021/09/05 09:14:12;;;;;;;14.60;8.68;;;18.20;93.80;;;;;;4945068;28;20089;-68
2021/09/05 09:16:38;;;;;;;19.85;9.20;;;18.40;93.90;;;;;;4944865;28;20031;-69
2021/09/05 09:19:04;;;;;;;18.63;8.02;;;18.50;93.30;;;;;;4954221;29;20023;-67
2021/09/05 09:21:40;;;;;;;17.23;8.30;;;18.50;93.00;;;;;;4946808;28;20118;-68
2021/09/05 09:24:10;;;;;;;11.30;7.35;;;18.60;92.90;;;;;;4943923;29;20482;-68
2021/09/05 09:26:36;;;;;;;13.05;7.85;;;18.70;93.00;;;;;;4946098;28;20418;-68
2021/09/05 09:29:01;;;;;;;16.35;8.25;;;18.80;92.50;;;;;;4951839;28;20058;-68
2021/09/05 09:31:28;;;;;;;15.18;7.97;;;18.80;92.40;;;;;;4950163;28;20043;-66
2021/09/05 09:33:56;;;;;;;12.52;7.93;;;18.90;92.10;;;;;;4957351;28;20386;-67
2021/09/05 09:36:23;;;;;;;12.65;7.30;;;19.10;91.70;;;;;;4960164;28;20023;-68
2021/09/05 09:38:58;;;;;;;14.50;7.15;;;19.00;91.70;;;;;;4962579;28;20027;-68
2021/09/05 09:41:32;;;;;;;13.90;8.05;;;19.10;91.40;;;;;;4960698;28;20030;-69
2021/09/05 09:44:00;;;;;;;14.70;8.02;;;19.10;90.90;;;;;;4952421;28;20031;-67
2021/09/05 09:46:27;;;;;;;13.95;8.13;;;19.10;91.10;;;;;;4949183;28;20106;-67
2021/09/05 09:48:55;;;;;;;14.45;8.45;;;19.20;90.70;;;;;;4965215;28;20026;-69
2021/09/05 09:51:22;;;;;;;16.10;8.15;;;19.20;90.60;;;;;;4951089;28;20555;-69
2021/09/05 09:53:49;;;;;;;12.00;7.45;;;19.20;90.70;;;;;;4962011;23;20077;-92
2021/09/05 09:56:16;;;;;;;12.05;7.35;;;19.30;90.70;;;;;;4948919;28;20038;-93
2021/09/05 09:58:46;;;;;;;12.07;7.22;;;19.40;90.60;;;;;;4953930;28;20039;-91
2021/09/05 10:01:15;;;;;;;21.17;8.50;;;19.50;90.40;;;;;;4957049;28;20046;-90
2021/09/05 10:03:43;;;;;;;15.25;7.72;;;19.60;90.00;;;;;;4953255;28;20048;-89
2021/09/05 10:06:12;;;;;;;12.98;7.43;;;19.60;89.40;;;;;;4956900;29;20099;-92
2021/09/05 10:08:45;;;;;;;11.15;6.78;;;19.70;88.60;;;;;;4953554;28;20031;-91
2021/09/05 10:11:26;;;;;;;12.52;7.22;;;19.70;88.80;;;;;;4969280;28;20039;-94
2021/09/05 10:13:52;;;;;;;11.70;6.68;;;19.80;88.70;;;;;;4976075;23;20049;-67
2021/09/05 10:16:17;;;;;;;11.07;6.38;;;19.90;88.60;;;;;;4968470;28;20023;-67
2021/09/05 10:18:44;;;;;;;11.98;6.68;;;20.00;88.20;;;;;;4968116;28;20034;-68
2021/09/05 10:21:13;;;;;;;15.20;7.30;;;20.10;88.30;;;;;;4959368;28;20046;-67
2021/09/05 10:23:44;;;;;;;10.38;6.22;;;20.20;88.70;;;;;;4970510;28;20604;-67
2021/09/05 10:26:11;;;;;;;13.23;6.78;;;20.40;86.80;;;;;;4965874;28;20027;-67
2021/09/05 10:28:45;;;;;;;13.15;6.80;;;20.40;85.70;;;;;;4963618;28;20070;-67
2021/09/05 10:31:20;;;;;;;12.73;7.70;;;20.40;85.70;;;;;;4969918;28;20504;-67
2021/09/05 10:33:46;;;;;;;14.90;6.90;;;20.40;84.90;;;;;;4972114;28;20034;-67
2021/09/05 10:36:14;;;;;;;11.30;5.95;;;20.40;85.00;;;;;;4971016;28;20038;-67
2021/09/05 10:38:42;;;;;;;10.05;5.32;;;20.50;85.60;;;;;;4968091;28;20046;-67
2021/09/05 10:41:13;;;;;;;12.65;5.90;;;20.60;85.60;;;;;;4972715;28;20443;-67
2021/09/05 10:44:06;;;;;;;10.20;6.15;;;20.70;84.70;;;;;;4967562;28;20041;-67
2021/09/05 10:46:42;;;;;;;10.70;6.78;;;20.90;85.10;;;;;;4962227;28;20587;-67
2021/09/05 10:49:08;;;;;;;10.80;6.32;;;21.00;84.50;;;;;;4966285;28;20122;-67
2021/09/05 10:51:38;;;;;;;14.70;7.03;;;21.10;84.40;;;;;;4966819;28;20117;-67
2021/09/05 10:54:21;;;;;;;11.05;6.82;;;21.30;83.90;;;;;;4962664;28;20027;-67
2021/09/05 10:56:47;;;;;;;10.82;6.68;;;21.30;82.50;;;;;;4958444;28;20137;-68
2021/09/05 10:59:23;;;;;;;13.40;8.27;;;21.20;82.00;;;;;;4962225;28;20408;-68
2021/09/05 11:01:48;;;;;;;11.82;7.20;;;21.20;82.00;;;;;;4947729;28;20028;-68
2021/09/05 11:04:17;;;;;;;13.68;7.38;;;21.30;82.40;;;;;;4944109;29;20042;-68
2021/09/05 11:07:00;;;;;;;14.27;7.40;;;21.40;82.00;;;;;;4960415;28;20039;-66
2021/09/05 11:09:25;;;;;;;19.23;7.25;;;21.50;81.40;;;;;;4938747;28;20019;-68
2021/09/05 11:12:25;;;;;;;14.77;8.13;;;21.50;80.30;;;;;;4943958;29;20029;-67
2021/09/05 11:14:51;;;;;;;11.65;6.53;;;21.50;79.50;;;;;;4960903;28;20442;-68
2021/09/05 11:17:24;;;;;;;13.25;7.07;;;21.40;78.70;;;;;;4941293;29;20023;-68
2021/09/05 11:19:52;;;;;;;12.15;6.90;;;21.40;79.60;;;;;;4932631;29;20032;-68
2021/09/05 11:22:46;;;;;;;12.45;6.88;;;21.50;79.50;;;;;;4938602;29;20035;-68
2021/09/05 11:25:23;;;;;;;13.80;8.13;;;21.50;79.00;;;;;;4945191;29;20110;-68
2021/09/05 11:27:58;;;;;;;14.48;7.95;;;21.50;78.80;;;;;;4932384;29;20035;-68
2021/09/05 11:30:27;;;;;;;11.20;7.15;;;21.50;79.10;;;;;;4947398;29;20042;-69
2021/09/05 11:32:58;;;;;;;13.68;7.28;;;21.60;78.00;;;;;;4955513;28;20031;-68
2021/09/05 11:35:23;;;;;;;10.55;7.22;;;21.60;78.50;;;;;;4947630;29;20059;-69
2021/09/05 11:37:55;;;;;;;12.05;7.68;;;21.60;78.20;;;;;;4949945;29;20027;-69
2021/09/05 11:40:21;;;;;;;16.50;7.25;;;21.60;78.20;;;;;;4942429;29;20019;-69
2021/09/05 11:42:54;;;;;;;13.05;7.80;;;21.70;77.70;;;;;;4951637;28;20039;-68
2021/09/05 11:45:25;;;;;;;11.60;7.72;;;21.70;77.50;;;;;;4951761;28;20050;-68
2021/09/05 11:48:02;;;;;;;14.50;7.93;;;21.80;77.80;;;;;;4954638;28;20102;-69
2021/09/05 11:50:28;;;;;;;13.27;8.05;;;21.80;78.20;;;;;;4954995;28;20062;-69
2021/09/05 11:52:54;;;;;;;15.32;9.05;;;21.90;78.20;;;;;;4956283;28;20035;-68
2021/09/05 11:55:20;;;;;;;15.02;8.43;;;22.00;77.50;;;;;;4954818;28;20107;-69
2021/09/05 11:58:00;;;;;;;14.05;8.38;;;22.00;77.10;;;;;;4953987;28;20419;-69
2021/09/05 12:00:35;;;;;;;11.43;7.30;;;22.00;76.10;;;;;;4952357;28;20027;-69
2021/09/05 12:03:03;;;;;;;13.73;7.93;;;21.90;74.80;;;;;;4955552;28;20031;-68
2021/09/05 12:05:29;;;;;;;12.48;7.50;;;21.90;75.70;;;;;;4955489;29;20035;-69
2021/09/05 12:07:55;;;;;;;11.68;7.80;;;22.00;75.70;;;;;;4954703;29;20118;-69
2021/09/05 12:10:26;;;;;;;11.63;7.47;;;22.00;75.40;;;;;;4954112;29;20028;-69
2021/09/05 12:13:01;;;;;;;14.07;8.32;;;22.20;75.10;;;;;;4955307;28;20046;-68
2021/09/05 12:15:35;;;;;;;12.90;7.50;;;22.20;75.00;;;;;;4951158;28;20083;-69
2021/09/05 12:18:01;;;;;;;11.68;7.07;;;22.20;74.40;;;;;;4948390;29;20082;-69
2021/09/05 12:20:41;;;;;;;12.75;7.35;;;22.30;74.60;;;;;;4954684;28;20032;-69
2021/09/05 12:23:20;;;;;;;12.73;7.38;;;22.40;74.50;;;;;;4955396;29;20031;-69
2021/09/05 12:25:47;;;;;;;11.45;7.60;;;22.50;74.50;;;;;;4954876;28;20558;-69
2021/09/05 12:28:19;;;;;;;13.57;7.65;;;22.60;73.00;;;;;;4954676;28;20035;-69
2021/09/05 12:30:49;;;;;;;12.45;6.85;;;22.60;72.80;;;;;;4953963;29;20035;-68
2021/09/05 12:33:19;;;;;;;10.98;6.68;;;22.70;73.80;;;;;;4954930;29;20074;-68